Strona główna
METAR-TAF:

METAR-TAF

Lotnisko :

Waterbury-Oxford Airport

Oxford, Connecticut, Stany Zjednoczone

Szerokość geograficzna: 41-29N, Długość geograficzna: 073-08W, wysokość: 222 m

Aktualna obserwacja pogody

Raport powstał 24 minut temu, godzina 08:51 UTC
Wiatr 11 kt od zachód w porywach dochodzący do 19 kt
Temperatura -3°C
Wilgotność 58%
Ciśnienie 1007 hPa
Widzialność: 12.9 km
Mało chmury na wysokości 1900 ft
Przerywane chmury na wysokości 4500 ft
Zachmurzenie całkowite na wysokości 5000 ft
słaby śnieg

METAR: KOXC 280851Z AUTO 26011G19KT 8SM -SN FEW019 BKN045 OVC050 M03/M10 A2974 RMK AO2 SNB46 SLP091 P0000 60000 T10331100 53000 FZRANO

czas: 04:15 (09:15 UTC)


TAF: brakujący

Obserwacja i prognoza pogody dla ponad 4000 lotnisk (raport METAR i TAF).

Dostępne stacje oznaczono żółtymi i czerwonymi punktami na mapie.

Najedź kursorem aby zobaczyć nazwę stacji.

Kliknij aby zobaczyć obserwacje i prognozy pogody.

Aby zmienić mapę: kliknij na zielony przycisk z czarnym krzyżykiem, aby powiększyć; na zielony przycisk z myślnikiem, aby pomniejszyć; na zielone strzałki, aby przejść do map sąsiednich.


METAR-TAF: